Time;durP1;ratioP1;P1;durP2;ratioP2;P2;SDS_P1;SDS_P2;PMS_P1;PMS_P2;Temp;Humidity;BMP_temperature;BMP_pressure;BME280_temperature;BME280_humidity;BME280_pressure;Samples;Min_cycle;Max_cycle;Signal;HPM_P1;HPM_P2
2022/10/02 00:00:28;;;;;;;23.85;5.53;;;10.40;99.90;;;;;;5078402;28;20414;-67
2022/10/02 00:03:00;;;;;;;17.83;4.30;;;10.50;99.90;;;;;;5031646;28;20048;-67
2022/10/02 00:05:36;;;;;;;15.32;4.25;;;10.50;99.90;;;;;;5071383;28;20048;-66
2022/10/02 00:08:09;;;;;;;22.80;5.18;;;10.50;99.90;;;;;;5079433;28;20104;-67
2022/10/02 00:11:02;;;;;;;21.17;5.50;;;10.50;99.90;;;;;;5080998;28;20111;-66
2022/10/02 00:13:41;;;;;;;25.10;4.78;;;10.50;99.90;;;;;;5077857;28;20047;-67
2022/10/02 00:16:21;;;;;;;25.15;4.57;;;10.50;99.90;;;;;;5076676;28;20044;-67
2022/10/02 00:18:48;;;;;;;23.13;5.82;;;10.50;99.90;;;;;;5067022;28;20044;-67
2022/10/02 00:21:36;;;;;;;22.17;5.50;;;10.50;99.90;;;;;;5066244;28;20157;-67
2022/10/02 00:24:04;;;;;;;25.48;5.55;;;10.50;99.90;;;;;;5066855;28;20043;-66
2022/10/02 00:26:41;;;;;;;17.73;5.55;;;10.50;99.90;;;;;;5065371;28;20037;-66
2022/10/02 00:29:37;;;;;;;23.08;6.03;;;10.50;99.90;;;;;;5064945;28;20456;-68
2022/10/02 00:32:11;;;;;;;17.58;4.65;;;10.50;99.90;;;;;;5064852;28;20063;-67
2022/10/02 00:34:50;;;;;;;21.75;6.45;;;10.50;99.90;;;;;;5066288;28;20029;-67
2022/10/02 00:37:29;;;;;;;22.35;5.43;;;10.50;99.90;;;;;;5066135;28;20040;-67
2022/10/02 00:40:24;;;;;;;21.33;5.82;;;10.50;99.90;;;;;;5063054;28;20092;-67
2022/10/02 00:42:57;;;;;;;24.38;7.30;;;10.50;99.90;;;;;;5062696;28;20045;-67
2022/10/02 00:45:53;;;;;;;26.08;6.43;;;10.60;99.90;;;;;;5065230;28;20062;-66
2022/10/02 00:48:28;;;;;;;23.90;6.68;;;10.60;99.90;;;;;;5065725;28;20053;-67
2022/10/02 00:51:24;;;;;;;25.60;6.45;;;10.60;99.90;;;;;;5067465;28;20041;-67
2022/10/02 00:53:53;;;;;;;21.55;6.32;;;10.60;99.90;;;;;;5063988;28;20036;-67
2022/10/02 00:57:04;;;;;;;21.30;5.65;;;10.60;99.90;;;;;;5066087;28;20053;-66
2022/10/02 00:59:35;;;;;;;26.67;7.40;;;10.60;99.90;;;;;;4997249;28;20042;-67
2022/10/02 01:02:13;;;;;;;23.85;6.60;;;10.60;99.90;;;;;;4990083;28;20157;-66
2022/10/02 01:04:39;;;;;;;22.92;6.88;;;10.70;99.90;;;;;;5032084;28;20063;-66
2022/10/02 01:07:09;;;;;;;25.55;7.47;;;10.70;99.90;;;;;;5065217;28;20083;-67
2022/10/02 01:09:35;;;;;;;16.75;5.93;;;10.70;99.90;;;;;;5044216;28;20507;-67
2022/10/02 01:12:01;;;;;;;24.88;7.90;;;10.70;99.90;;;;;;5065853;28;20039;-67
2022/10/02 01:14:35;;;;;;;19.10;5.97;;;10.70;99.90;;;;;;5065718;28;20035;-66
2022/10/02 01:17:01;;;;;;;25.90;7.13;;;10.70;99.90;;;;;;5047626;28;20115;-67
2022/10/02 01:19:37;;;;;;;23.15;6.82;;;10.70;99.90;;;;;;5064648;28;20044;-67
2022/10/02 01:22:38;;;;;;;20.75;6.95;;;10.70;99.90;;;;;;5066513;28;20040;-66
2022/10/02 01:25:06;;;;;;;24.13;7.05;;;10.70;99.90;;;;;;5040056;28;20701;-66
2022/10/02 01:27:33;;;;;;;19.33;7.53;;;10.80;99.90;;;;;;5061386;28;20056;-66
2022/10/02 01:30:07;;;;;;;19.65;5.90;;;10.80;99.90;;;;;;5065239;28;20040;-67
2022/10/02 01:32:36;;;;;;;27.05;6.93;;;10.80;99.90;;;;;;5064611;28;20032;-66
2022/10/02 01:35:02;;;;;;;23.88;6.80;;;10.80;99.90;;;;;;5066595;28;20055;-66
2022/10/02 01:37:29;;;;;;;;;;;10.80;99.90;;;;;;5066481;28;20492;-67
2022/10/02 01:39:58;;;;;;;21.67;5.93;;;10.80;99.90;;;;;;5072445;28;20027;-67
2022/10/02 01:42:23;;;;;;;32.45;8.20;;;10.80;99.90;;;;;;5058365;28;20570;-67
2022/10/02 01:44:49;;;;;;;;;;;10.80;99.90;;;;;;5065530;28;20044;-67
2022/10/02 01:47:21;;;;;;;19.90;7.07;;;10.80;99.90;;;;;;5065038;28;19944;-67
2022/10/02 01:50:02;;;;;;;28.05;7.10;;;10.80;99.90;;;;;;5065990;28;20045;-67
2022/10/02 01:52:55;;;;;;;25.65;7.43;;;10.80;99.90;;;;;;5057690;28;20047;-66
2022/10/02 01:55:21;;;;;;;21.23;6.88;;;10.90;99.90;;;;;;5065768;28;20059;-66
2022/10/02 01:57:58;;;;;;;;;;;10.80;99.90;;;;;;5065493;28;20488;-67
2022/10/02 02:00:26;;;;;;;24.77;7.40;;;10.90;99.90;;;;;;5060505;28;19920;-67
2022/10/02 02:03:12;;;;;;;32.75;8.35;;;10.80;99.90;;;;;;5064431;28;20048;-68
2022/10/02 02:05:44;;;;;;;28.02;6.05;;;10.90;99.90;;;;;;5062194;28;20040;-66
2022/10/02 02:08:35;;;;;;;26.80;6.43;;;10.90;99.90;;;;;;5064687;28;20045;-66
2022/10/02 02:11:21;;;;;;;24.00;6.82;;;10.90;99.90;;;;;;5063074;28;20608;-67
2022/10/02 02:14:14;;;;;;;22.33;6.33;;;10.90;99.90;;;;;;5062674;28;20059;-67
2022/10/02 02:16:43;;;;;;;25.58;8.07;;;10.90;99.90;;;;;;5058304;28;20139;-67
2022/10/02 02:19:09;;;;;;;19.88;6.30;;;10.90;99.90;;;;;;5064795;28;20515;-67
2022/10/02 02:21:40;;;;;;;23.63;6.18;;;10.90;99.90;;;;;;5064744;28;20044;-68
2022/10/02 02:24:13;;;;;;;16.60;5.10;;;10.90;99.90;;;;;;5057164;28;20390;-67
2022/10/02 02:26:42;;;;;;;30.45;6.97;;;10.90;99.90;;;;;;5064251;28;20045;-67
2022/10/02 02:29:09;;;;;;;24.77;5.82;;;10.90;99.90;;;;;;5064610;28;20695;-67
2022/10/02 02:31:40;;;;;;;30.38;7.10;;;10.90;99.90;;;;;;5060881;28;20068;-67
2022/10/02 02:34:11;;;;;;;22.55;6.57;;;10.90;99.90;;;;;;5076995;28;20578;-66
2022/10/02 02:36:42;;;;;;;26.60;6.13;;;10.90;99.90;;;;;;5064794;28;20083;-66
2022/10/02 02:39:17;;;;;;;17.17;6.25;;;10.90;99.90;;;;;;5062655;28;20048;-66
2022/10/02 02:41:57;;;;;;;26.75;5.70;;;10.90;99.90;;;;;;5063246;28;20116;-67
2022/10/02 02:44:34;;;;;;;17.20;5.75;;;10.90;99.90;;;;;;5063687;28;20115;-66
2022/10/02 02:47:03;;;;;;;26.75;8.02;;;10.90;99.90;;;;;;5063785;28;20040;-67
2022/10/02 02:49:36;;;;;;;25.50;6.70;;;10.90;99.90;;;;;;5064578;28;20094;-67
2022/10/02 02:52:07;;;;;;;20.80;6.65;;;10.90;99.90;;;;;;5063940;28;20498;-67
2022/10/02 02:54:44;;;;;;;31.90;7.32;;;10.90;99.90;;;;;;5062086;28;20040;-67
2022/10/02 02:57:11;;;;;;;20.95;6.25;;;10.90;99.90;;;;;;5063262;28;20377;-67
2022/10/02 02:59:39;;;;;;;24.13;5.90;;;10.90;99.90;;;;;;5064183;28;20111;-67
2022/10/02 03:02:08;;;;;;;33.35;8.27;;;10.90;99.90;;;;;;5063513;28;20131;-67
2022/10/02 03:04:33;;;;;;;20.55;7.00;;;10.90;99.90;;;;;;5062566;28;20052;-67
2022/10/02 03:07:01;;;;;;;;;;;10.90;99.90;;;;;;5065052;28;20047;-67
2022/10/02 03:09:31;;;;;;;24.10;6.07;;;10.90;99.90;;;;;;5064139;28;19916;-67
2022/10/02 03:11:56;;;;;;;31.75;6.93;;;10.90;99.90;;;;;;5062574;28;20043;-66
2022/10/02 03:14:37;;;;;;;;;;;10.90;99.90;;;;;;5064451;28;20044;-66
2022/10/02 03:17:26;;;;;;;22.98;6.75;;;11.00;99.90;;;;;;5063019;28;19920;-68
2022/10/02 03:20:01;;;;;;;23.35;7.00;;;11.00;99.90;;;;;;5059995;28;20032;-66
2022/10/02 03:22:35;;;;;;;26.42;6.85;;;11.00;99.90;;;;;;5056448;28;20541;-66
2022/10/02 03:25:20;;;;;;;27.80;6.90;;;11.00;99.90;;;;;;5063054;28;20036;-66
2022/10/02 03:28:00;;;;;;;21.95;7.35;;;11.00;99.90;;;;;;5064190;28;20416;-68
2022/10/02 03:30:27;;;;;;;23.50;7.13;;;11.00;99.90;;;;;;5057858;28;20040;-67
2022/10/02 03:32:55;;;;;;;28.50;7.95;;;11.00;99.90;;;;;;5062528;28;20045;-67
2022/10/02 03:35:22;;;;;;;22.05;6.70;;;11.00;99.90;;;;;;5064675;28;20048;-66
2022/10/02 03:37:51;;;;;;;20.50;6.30;;;11.10;99.90;;;;;;5063896;28;20040;-66
2022/10/02 03:40:22;;;;;;;26.30;7.55;;;11.10;99.90;;;;;;5064461;28;20044;-66
2022/10/02 03:42:47;;;;;;;26.00;7.32;;;11.10;99.90;;;;;;5063805;28;20040;-67
2022/10/02 03:45:13;;;;;;;;;;;11.10;99.90;;;;;;5064002;28;20044;-66
2022/10/02 03:47:38;;;;;;;22.83;8.35;;;11.10;99.90;;;;;;5063677;28;19944;-67
2022/10/02 03:50:04;;;;;;;;;;;11.10;99.90;;;;;;5064633;28;20036;-67
2022/10/02 03:52:31;;;;;;;24.27;7.30;;;11.10;99.90;;;;;;5065137;28;19926;-67
2022/10/02 03:55:03;;;;;;;29.25;7.90;;;11.10;99.90;;;;;;5065770;28;20037;-67
2022/10/02 03:57:32;;;;;;;18.80;6.93;;;11.10;99.90;;;;;;5060003;28;20642;-68
2022/10/02 04:00:08;;;;;;;23.95;7.78;;;11.10;99.90;;;;;;5068073;28;20040;-67
2022/10/02 04:02:36;;;;;;;21.30;6.35;;;11.10;99.90;;;;;;5057416;28;20111;-66
2022/10/02 04:05:24;;;;;;;30.58;7.40;;;11.10;99.90;;;;;;5067402;28;20093;-67
2022/10/02 04:07:53;;;;;;;18.25;6.70;;;11.10;99.90;;;;;;5069542;28;20522;-66
2022/10/02 04:10:19;;;;;;;23.63;7.55;;;11.10;99.90;;;;;;5071044;28;20082;-67
2022/10/02 04:12:47;;;;;;;;;;;11.10;99.90;;;;;;5067527;28;20044;-67
2022/10/02 04:15:29;;;;;;;34.15;8.18;;;11.10;99.90;;;;;;5065911;28;19921;-67
2022/10/02 04:18:02;;;;;;;22.02;7.68;;;11.10;99.90;;;;;;5065652;28;20036;-67
2022/10/02 04:20:51;;;;;;;25.98;7.63;;;11.20;99.90;;;;;;5063396;28;20032;-67
2022/10/02 04:23:26;;;;;;;25.40;6.95;;;11.10;99.90;;;;;;5066076;28;20043;-67
2022/10/02 04:25:59;;;;;;;20.00;7.07;;;11.20;99.90;;;;;;5067291;28;20048;-67
2022/10/02 04:28:37;;;;;;;25.38;7.70;;;11.20;99.90;;;;;;5063673;28;20045;-67
2022/10/02 04:31:10;;;;;;;29.05;7.53;;;11.20;99.90;;;;;;5065701;28;20036;-67
2022/10/02 04:33:36;;;;;;;34.20;7.78;;;11.10;99.90;;;;;;5066080;28;20040;-66
2022/10/02 04:36:09;;;;;;;;;;;11.20;99.90;;;;;;5066125;28;20055;-67
2022/10/02 04:38:50;;;;;;;30.55;7.20;;;11.20;99.90;;;;;;5066454;28;19920;-67
2022/10/02 04:41:31;;;;;;;21.42;7.00;;;11.20;99.90;;;;;;5067453;28;20389;-67
2022/10/02 04:44:15;;;;;;;22.10;6.32;;;11.20;99.90;;;;;;5066079;28;20107;-67
2022/10/02 04:47:07;;;;;;;29.95;7.18;;;11.20;99.90;;;;;;5067515;28;20047;-67
2022/10/02 04:49:35;;;;;;;31.08;8.13;;;11.20;99.90;;;;;;5065581;28;20082;-68
2022/10/02 04:52:16;;;;;;;24.48;7.22;;;11.20;99.90;;;;;;5067346;28;20040;-67
2022/10/02 04:54:50;;;;;;;37.00;8.27;;;11.30;99.90;;;;;;5066249;28;20124;-67
2022/10/02 04:57:50;;;;;;;21.70;7.55;;;11.20;99.90;;;;;;5065985;28;20041;-66
2022/10/02 05:00:19;;;;;;;25.08;7.07;;;11.20;99.90;;;;;;5065120;28;20162;-66
2022/10/02 05:03:05;;;;;;;18.05;6.53;;;11.20;99.90;;;;;;5065832;28;20106;-67
2022/10/02 05:06:01;;;;;;;25.48;7.50;;;11.20;99.90;;;;;;5071034;28;20429;-64
2022/10/02 05:08:34;;;;;;;24.08;7.40;;;11.20;99.90;;;;;;5062839;28;20051;-64
2022/10/02 05:11:13;;;;;;;26.50;7.90;;;11.20;99.90;;;;;;5062079;28;20488;-65
2022/10/02 05:13:58;;;;;;;31.98;8.38;;;11.20;99.90;;;;;;5067034;28;20048;-64
2022/10/02 05:16:40;;;;;;;20.80;6.65;;;11.30;99.90;;;;;;5068139;28;20076;-65
2022/10/02 05:19:35;;;;;;;25.55;7.47;;;11.30;99.90;;;;;;5062328;28;20043;-66
2022/10/02 05:22:19;;;;;;;32.03;9.10;;;11.30;99.90;;;;;;5063097;28;21296;-64
2022/10/02 05:24:54;;;;;;;37.03;8.48;;;11.20;99.90;;;;;;5070826;28;20145;-64
2022/10/02 05:27:25;;;;;;;26.33;8.20;;;11.30;99.90;;;;;;5063174;28;20507;-64
2022/10/02 05:29:54;;;;;;;23.77;7.72;;;11.30;99.90;;;;;;5065948;28;20625;-68
2022/10/02 05:32:40;;;;;;;18.05;6.45;;;11.30;99.90;;;;;;5064551;28;20070;-67
2022/10/02 05:35:24;;;;;;;25.52;6.93;;;11.30;99.90;;;;;;5061277;28;20123;-69
2022/10/02 05:38:08;;;;;;;26.50;7.35;;;11.30;99.90;;;;;;5065283;28;20095;-67
2022/10/02 05:40:55;;;;;;;26.50;7.93;;;11.40;99.90;;;;;;5063281;28;20036;-68
2022/10/02 05:44:01;;;;;;;25.92;7.25;;;11.30;99.90;;;;;;5063664;28;20475;-67
2022/10/02 05:46:33;;;;;;;26.02;6.85;;;11.40;99.90;;;;;;5064570;28;20045;-67
2022/10/02 05:49:07;;;;;;;27.10;6.70;;;11.40;99.90;;;;;;5064376;28;20420;-67
2022/10/02 05:51:58;;;;;;;23.58;7.13;;;11.40;99.90;;;;;;5059868;28;20038;-64
2022/10/02 05:54:42;;;;;;;24.73;6.75;;;11.40;99.90;;;;;;5068791;28;20044;-65
2022/10/02 05:57:31;;;;;;;20.70;6.15;;;11.40;99.90;;;;;;5068023;28;20474;-64
2022/10/02 06:00:30;;;;;;;14.20;5.43;;;11.40;99.90;;;;;;5063235;28;20040;-68
2022/10/02 06:03:38;;;;;;;13.20;5.20;;;11.50;99.90;;;;;;5062812;28;20155;-68
2022/10/02 06:06:15;;;;;;;;;;;11.50;99.90;;;;;;5073501;28;20086;-66
2022/10/02 06:08:58;;;;;;;14.30;4.13;;;11.50;99.90;;;;;;5060546;28;20415;-67
2022/10/02 06:11:31;;;;;;;10.85;4.30;;;11.50;99.90;;;;;;5066236;28;20071;-67
2022/10/02 06:14:09;;;;;;;13.13;4.03;;;11.50;99.90;;;;;;5064239;28;20028;-68
2022/10/02 06:16:50;;;;;;;11.50;3.40;;;11.50;99.90;;;;;;5061542;28;20044;-68
2022/10/02 06:19:25;;;;;;;8.98;3.30;;;11.50;99.90;;;;;;5064603;28;20032;-67
2022/10/02 06:22:05;;;;;;;11.70;4.50;;;11.50;99.90;;;;;;5070074;28;20093;-69
2022/10/02 06:24:39;;;;;;;7.32;3.05;;;11.50;99.90;;;;;;5066332;28;20040;-63
2022/10/02 06:27:25;;;;;;;11.48;3.80;;;11.50;99.90;;;;;;5069270;28;20036;-65
2022/10/02 06:30:05;;;;;;;10.13;3.40;;;11.50;99.90;;;;;;5052307;28;20037;-68
2022/10/02 06:32:47;;;;;;;6.00;3.05;;;11.50;99.90;;;;;;5066804;28;20079;-67
2022/10/02 06:35:15;;;;;;;9.32;3.10;;;11.50;99.90;;;;;;5068637;28;20060;-67
2022/10/02 06:38:26;;;;;;;8.93;3.60;;;11.50;99.90;;;;;;5073377;28;20044;-69
2022/10/02 06:40:59;;;;;;;7.30;3.03;;;11.60;99.90;;;;;;4990895;28;20045;-70
2022/10/02 06:44:12;;;;;;;8.13;2.70;;;11.60;99.90;;;;;;5053401;28;20376;-65
2022/10/02 06:46:48;;;;;;;12.90;3.58;;;11.60;99.90;;;;;;5030746;28;20445;-66
2022/10/02 06:49:36;;;;;;;10.75;2.75;;;11.60;99.90;;;;;;5072204;28;20104;-65
2022/10/02 06:52:31;;;;;;;11.15;2.90;;;11.60;99.90;;;;;;5067073;28;20117;-63
2022/10/02 06:55:19;;;;;;;9.38;2.60;;;11.60;99.90;;;;;;5063653;28;20041;-65
2022/10/02 06:58:05;;;;;;;9.93;2.97;;;11.60;99.90;;;;;;5067296;28;20539;-68
2022/10/02 07:01:01;;;;;;;10.13;3.03;;;11.60;99.90;;;;;;5067317;28;20524;-66
2022/10/02 07:03:55;;;;;;;10.05;3.15;;;11.60;99.90;;;;;;5063895;28;20033;-68
2022/10/02 07:06:43;;;;;;;8.88;2.92;;;11.60;99.90;;;;;;5075228;28;20084;-67
2022/10/02 07:09:33;;;;;;;9.20;2.53;;;11.60;99.90;;;;;;5069651;28;20040;-65
2022/10/02 07:12:07;;;;;;;14.10;3.08;;;11.70;99.90;;;;;;5069159;28;20082;-66
2022/10/02 07:14:41;;;;;;;16.40;3.33;;;11.70;99.90;;;;;;5058584;28;20040;-67
2022/10/02 07:17:30;;;;;;;16.98;3.15;;;11.60;99.90;;;;;;5062389;28;20052;-66
2022/10/02 07:20:30;;;;;;;12.80;3.20;;;11.60;99.90;;;;;;5049293;28;20459;-66
2022/10/02 07:23:17;;;;;;;7.85;2.60;;;11.60;99.90;;;;;;5059303;28;20032;-67
2022/10/02 07:25:45;;;;;;;;;;;11.60;99.90;;;;;;5045941;28;20052;-66
2022/10/02 07:28:20;;;;;;;7.93;2.47;;;11.60;99.90;;;;;;5065162;28;20393;-66
2022/10/02 07:30:59;;;;;;;14.98;2.60;;;11.70;99.90;;;;;;5066688;28;20032;-66
2022/10/02 07:33:39;;;;;;;9.10;2.42;;;11.70;99.90;;;;;;5067148;28;20052;-66
2022/10/02 07:36:39;;;;;;;9.63;2.30;;;11.70;99.90;;;;;;5064917;28;20128;-66
2022/10/02 07:39:19;;;;;;;7.35;2.15;;;11.80;99.90;;;;;;5032669;28;20447;-66
2022/10/02 07:42:15;;;;;;;5.68;1.95;;;11.70;99.90;;;;;;5067971;28;20074;-68
2022/10/02 07:44:52;;;;;;;8.88;2.08;;;11.80;99.90;;;;;;5063495;28;20032;-66
2022/10/02 07:47:31;;;;;;;7.60;2.08;;;11.70;99.90;;;;;;5067613;28;20124;-67
2022/10/02 07:50:11;;;;;;;5.20;2.17;;;11.70;99.90;;;;;;5062074;28;20135;-66
2022/10/02 07:52:48;;;;;;;11.70;2.17;;;11.70;99.90;;;;;;5062832;28;20040;-67
2022/10/02 07:55:25;;;;;;;12.10;3.08;;;11.70;99.90;;;;;;5066712;28;20094;-66
2022/10/02 07:58:05;;;;;;;10.85;2.35;;;11.70;99.90;;;;;;5067334;28;20042;-67
2022/10/02 08:00:38;;;;;;;9.57;2.10;;;11.70;99.90;;;;;;5062574;28;20043;-65
2022/10/02 08:03:24;;;;;;;10.90;1.90;;;11.70;99.90;;;;;;5058597;28;20053;-66
2022/10/02 08:05:55;;;;;;;8.82;2.10;;;11.70;99.90;;;;;;5064610;28;20037;-66
2022/10/02 08:08:30;;;;;;;10.13;2.13;;;11.70;99.90;;;;;;5067135;28;20044;-67
2022/10/02 08:11:07;;;;;;;8.60;1.92;;;11.70;99.90;;;;;;5067322;28;20051;-67
2022/10/02 08:13:57;;;;;;;10.30;1.85;;;11.70;99.90;;;;;;5064911;28;20059;-65
2022/10/02 08:16:31;;;;;;;5.75;1.77;;;11.70;99.90;;;;;;5067021;28;20055;-65
2022/10/02 08:19:04;;;;;;;10.00;2.50;;;11.70;99.90;;;;;;5065975;28;20036;-66
2022/10/02 08:21:37;;;;;;;9.50;2.20;;;11.70;99.90;;;;;;5058162;28;20044;-65
2022/10/02 08:24:12;;;;;;;11.48;2.80;;;11.70;99.90;;;;;;5066116;28;20048;-66
2022/10/02 08:26:47;;;;;;;12.05;3.58;;;11.70;99.90;;;;;;5061350;28;20040;-66
2022/10/02 08:29:29;;;;;;;11.02;3.42;;;11.70;99.90;;;;;;5066420;28;20461;-66
2022/10/02 08:31:55;;;;;;;14.73;3.65;;;11.70;99.90;;;;;;5065377;28;20040;-67
2022/10/02 08:34:23;;;;;;;;;;;11.80;99.90;;;;;;5064406;28;20044;-67
2022/10/02 08:37:13;;;;;;;11.90;3.67;;;11.90;99.90;;;;;;5069819;28;19922;-69
2022/10/02 08:39:43;;;;;;;10.98;3.58;;;12.00;99.90;;;;;;5072979;28;20081;-66
2022/10/02 08:42:33;;;;;;;11.18;3.22;;;12.10;99.90;;;;;;5068018;28;20056;-69
2022/10/02 08:45:45;;;;;;;6.07;2.55;;;12.30;99.90;;;;;;5063093;28;20166;-66
2022/10/02 08:48:41;;;;;;;8.25;3.28;;;12.40;99.90;;;;;;5065164;28;20041;-68
2022/10/02 08:51:38;;;;;;;10.10;3.73;;;12.40;99.90;;;;;;5064738;28;20404;-69
2022/10/02 08:54:19;;;;;;;8.23;2.90;;;12.50;99.90;;;;;;5065825;28;20138;-66
2022/10/02 08:57:29;;;;;;;10.60;3.53;;;12.60;99.90;;;;;;5057721;28;20036;-66
2022/10/02 09:00:00;;;;;;;18.60;3.83;;;12.60;99.90;;;;;;5060689;28;20029;-66
2022/10/02 09:02:46;;;;;;;12.25;3.83;;;12.60;99.90;;;;;;5064679;28;20039;-67
2022/10/02 09:05:58;;;;;;;9.57;3.60;;;12.60;99.90;;;;;;5062617;28;20179;-66
2022/10/02 09:08:32;;;;;;;14.95;3.83;;;12.70;99.90;;;;;;5064937;28;20186;-66
2022/10/02 09:11:12;;;;;;;16.75;3.95;;;12.70;99.90;;;;;;5061301;28;20044;-66
2022/10/02 09:14:15;;;;;;;16.27;4.68;;;12.60;99.90;;;;;;5063583;28;20762;-67
2022/10/02 09:17:09;;;;;;;12.25;5.28;;;12.50;99.90;;;;;;5065654;28;20086;-66
2022/10/02 09:19:56;;;;;;;11.13;4.38;;;12.50;99.90;;;;;;5058191;28;20048;-66
2022/10/02 09:22:48;;;;;;;;;;;12.50;99.90;;;;;;5065072;28;20477;-67
2022/10/02 09:25:23;;;;;;;16.95;4.28;;;12.40;99.90;;;;;;5057803;28;20010;-66
2022/10/02 09:28:26;;;;;;;11.70;3.67;;;12.30;99.90;;;;;;5075122;28;20500;-67
2022/10/02 09:31:17;;;;;;;12.77;3.63;;;12.20;99.90;;;;;;5068151;28;20044;-65
2022/10/02 09:33:58;;;;;;;11.57;3.90;;;12.20;99.90;;;;;;5071140;28;20043;-66
2022/10/02 09:36:56;;;;;;;9.70;3.53;;;12.20;99.90;;;;;;5082278;28;20040;-65
2022/10/02 09:39:56;;;;;;;8.95;3.30;;;12.20;99.90;;;;;;5064610;28;20037;-66
2022/10/02 09:42:43;;;;;;;9.68;2.88;;;12.20;99.90;;;;;;5062230;28;20467;-67
2022/10/02 09:45:19;;;;;;;7.93;2.72;;;12.20;99.90;;;;;;5066023;28;20064;-70
2022/10/02 09:48:00;;;;;;;8.07;2.67;;;12.30;99.90;;;;;;5063355;28;20044;-67
2022/10/02 09:50:45;;;;;;;11.93;3.28;;;12.30;99.90;;;;;;5063859;28;20119;-68
2022/10/02 09:53:35;;;;;;;8.88;3.53;;;12.30;99.90;;;;;;5065376;28;20051;-65
2022/10/02 09:56:21;;;;;;;11.32;3.25;;;12.30;99.90;;;;;;5064111;28;20051;-67
2022/10/02 09:59:01;;;;;;;15.52;4.18;;;12.40;99.90;;;;;;5067029;28;20040;-66
2022/10/02 10:01:36;;;;;;;13.88;4.22;;;12.40;99.90;;;;;;5063589;28;20124;-68
2022/10/02 10:04:28;;;;;;;15.60;4.90;;;12.50;99.90;;;;;;5063140;28;20037;-65
2022/10/02 10:07:25;;;;;;;13.45;3.95;;;12.60;99.90;;;;;;5062675;28;20037;-65
2022/10/02 10:10:04;;;;;;;13.30;4.43;;;12.70;99.90;;;;;;5059879;28;20041;-67
2022/10/02 10:12:51;;;;;;;15.05;4.00;;;12.80;99.90;;;;;;5064175;28;20154;-66
2022/10/02 10:15:51;;;;;;;14.00;4.57;;;12.80;99.90;;;;;;5063972;28;20873;-65
2022/10/02 10:19:01;;;;;;;19.08;5.03;;;13.00;99.90;;;;;;5063848;28;20133;-66
2022/10/02 10:21:49;;;;;;;10.93;3.90;;;13.10;99.90;;;;;;5039027;28;20048;-67
2022/10/02 10:24:33;;;;;;;10.73;4.40;;;13.10;99.90;;;;;;5063072;28;20051;-66
2022/10/02 10:27:16;;;;;;;13.00;4.80;;;13.30;99.90;;;;;;5059673;28;20048;-66
2022/10/02 10:30:03;;;;;;;13.65;3.75;;;13.30;99.90;;;;;;5064018;28;20060;-67
2022/10/02 10:32:59;;;;;;;14.30;3.55;;;13.40;99.90;;;;;;5063410;28;20042;-69
2022/10/02 10:35:43;;;;;;;12.52;3.60;;;13.50;99.90;;;;;;5063994;28;20040;-67
2022/10/02 10:38:49;;;;;;;17.38;3.83;;;13.50;99.90;;;;;;5064229;28;20033;-67
2022/10/02 10:41:53;;;;;;;14.38;4.35;;;13.40;99.90;;;;;;5064131;28;20500;-67
2022/10/02 10:44:49;;;;;;;15.98;3.83;;;13.40;99.90;;;;;;5061928;28;20532;-66
2022/10/02 10:47:39;;;;;;;7.18;3.35;;;13.50;99.90;;;;;;5062703;28;21071;-67
2022/10/02 10:50:24;;;;;;;10.45;3.50;;;13.50;99.90;;;;;;5059185;28;20037;-66
2022/10/02 10:53:23;;;;;;;12.00;3.28;;;13.40;99.90;;;;;;5058057;28;20051;-67
2022/10/02 10:56:33;;;;;;;14.32;3.85;;;13.30;99.90;;;;;;5063110;28;20090;-67
2022/10/02 10:59:23;;;;;;;9.63;2.80;;;13.40;99.90;;;;;;5051475;28;20056;-66
2022/10/02 11:01:59;;;;;;;8.45;3.15;;;13.40;99.90;;;;;;5056357;28;20036;-67
2022/10/02 11:05:09;;;;;;;8.90;2.70;;;13.40;99.90;;;;;;5062126;28;20124;-67
2022/10/02 11:08:01;;;;;;;9.13;3.10;;;13.50;99.90;;;;;;5010504;28;20042;-69
2022/10/02 11:10:51;;;;;;;13.90;3.15;;;13.60;99.90;;;;;;5063173;28;20070;-66
2022/10/02 11:13:47;;;;;;;9.70;3.35;;;13.50;99.90;;;;;;5059968;28;20573;-66
2022/10/02 11:16:34;;;;;;;11.17;3.60;;;13.40;99.90;;;;;;5061894;28;20079;-67
2022/10/02 11:19:31;;;;;;;16.13;3.92;;;13.40;99.90;;;;;;5064081;28;20029;-67
2022/10/02 11:22:09;;;;;;;9.63;2.85;;;13.40;99.90;;;;;;5068223;28;20447;-66
2022/10/02 11:24:56;;;;;;;11.88;3.40;;;13.40;99.90;;;;;;5061982;28;20037;-67
2022/10/02 11:27:22;;;;;;;14.25;2.95;;;13.40;99.90;;;;;;5062238;28;20040;-65
2022/10/02 11:30:06;;;;;;;;;;;13.40;99.90;;;;;;5064141;28;20044;-68
2022/10/02 11:32:50;;;;;;;12.15;3.15;;;13.50;99.90;;;;;;5062818;28;20406;-66
2022/10/02 11:35:18;;;;;;;20.75;3.60;;;13.50;99.90;;;;;;5063189;28;20489;-68
2022/10/02 11:38:02;;;;;;;11.35;3.10;;;13.40;99.90;;;;;;5063364;28;20052;-68
2022/10/02 11:40:48;;;;;;;12.82;3.22;;;13.50;99.90;;;;;;5063880;28;20048;-66
2022/10/02 11:43:28;;;;;;;13.10;3.92;;;13.60;99.90;;;;;;5062251;28;20049;-65
2022/10/02 11:46:20;;;;;;;11.63;3.97;;;13.60;99.90;;;;;;5063082;28;20106;-66
2022/10/02 11:49:25;;;;;;;9.23;3.00;;;13.50;99.90;;;;;;5063159;28;20753;-67
2022/10/02 11:52:04;;;;;;;12.23;3.20;;;13.50;99.90;;;;;;5061932;28;20116;-66
2022/10/02 11:54:55;;;;;;;8.95;3.53;;;13.50;99.90;;;;;;5062365;28;20107;-68
2022/10/02 11:57:33;;;;;;;11.68;3.28;;;13.50;99.90;;;;;;5061591;28;20123;-66
2022/10/02 12:00:37;;;;;;;11.50;3.67;;;13.50;99.90;;;;;;5057302;28;20048;-65
2022/10/02 12:03:15;;;;;;;18.40;3.70;;;13.50;99.90;;;;;;5057504;28;20145;-64
2022/10/02 12:06:33;;;;;;;12.57;3.63;;;13.50;99.90;;;;;;5062079;28;20434;-64
2022/10/02 12:09:17;;;;;;;11.70;3.70;;;13.50;99.90;;;;;;5015155;28;20076;-67
2022/10/02 12:11:58;;;;;;;13.82;3.80;;;13.50;99.90;;;;;;5059700;28;20606;-67
2022/10/02 12:14:47;;;;;;;10.32;3.45;;;13.60;99.90;;;;;;5062327;28;20036;-66
2022/10/02 12:17:31;;;;;;;11.95;4.03;;;13.60;99.90;;;;;;5064728;28;20037;-66
2022/10/02 12:26:58;;;;;;;6.75;3.35;;;13.50;99.90;;;;;;5061310;28;20049;-65
2022/10/02 12:30:01;;;;;;;9.73;3.83;;;13.60;99.90;;;;;;5065258;28;20048;-65
2022/10/02 12:32:57;;;;;;;11.68;4.50;;;13.60;99.90;;;;;;5065078;28;20725;-67
2022/10/02 12:36:04;;;;;;;11.27;4.57;;;13.50;99.90;;;;;;5063687;28;20059;-65
2022/10/02 12:38:43;;;;;;;17.48;4.55;;;13.60;99.90;;;;;;5065089;28;20554;-66
2022/10/02 12:41:35;;;;;;;8.30;3.22;;;13.70;99.90;;;;;;5061538;28;20043;-66
2022/10/02 12:44:15;;;;;;;9.85;3.45;;;13.70;99.90;;;;;;5065035;28;20036;-66
2022/10/02 12:47:06;;;;;;;12.80;4.20;;;13.80;99.90;;;;;;5064323;28;20051;-66
2022/10/02 12:49:35;;;;;;;9.77;3.95;;;13.80;99.90;;;;;;5065251;28;20163;-65
2022/10/02 12:52:14;;;;;;;12.90;3.65;;;13.80;99.90;;;;;;5065516;28;20036;-64
2022/10/02 12:55:31;;;;;;;8.75;3.35;;;13.80;99.90;;;;;;5063074;28;20044;-65
2022/10/02 12:58:32;;;;;;;11.50;3.85;;;13.70;99.90;;;;;;5051229;28;20070;-66
2022/10/02 13:01:29;;;;;;;8.30;3.72;;;13.60;99.90;;;;;;5065511;28;20036;-66
2022/10/02 13:04:20;;;;;;;11.32;4.65;;;13.70;99.90;;;;;;5064755;28;20098;-65
2022/10/02 13:07:18;;;;;;;13.13;4.05;;;13.80;99.90;;;;;;5065368;28;20032;-66
2022/10/02 13:10:05;;;;;;;12.88;3.63;;;13.90;99.90;;;;;;5065309;28;20059;-66
2022/10/02 13:12:44;;;;;;;11.85;3.60;;;14.00;99.90;;;;;;5066797;28;20511;-66
2022/10/02 13:15:37;;;;;;;11.48;3.38;;;14.10;99.90;;;;;;5065243;28;20040;-65
2022/10/02 13:18:09;;;;;;;11.48;3.67;;;14.00;99.90;;;;;;5061610;28;20039;-66
2022/10/02 13:21:07;;;;;;;10.18;3.38;;;14.00;99.90;;;;;;5066438;28;20048;-65
2022/10/02 13:23:51;;;;;;;11.98;3.28;;;14.00;99.90;;;;;;5053345;28;20420;-66
2022/10/02 13:26:45;;;;;;;13.48;2.90;;;14.00;99.90;;;;;;5065565;28;20044;-67
2022/10/02 13:29:33;;;;;;;15.25;3.42;;;13.90;99.90;;;;;;5064807;28;20500;-65
2022/10/02 13:32:33;;;;;;;14.82;4.18;;;13.90;99.90;;;;;;5058290;28;20044;-65
2022/10/02 13:35:05;;;;;;;6.25;2.20;;;13.90;99.90;;;;;;5074791;28;20044;-65
2022/10/02 13:37:49;;;;;;;12.80;3.38;;;13.90;99.90;;;;;;5065934;28;20583;-65
2022/10/02 13:40:30;;;;;;;12.07;2.88;;;13.90;99.90;;;;;;5065542;28;20044;-65
2022/10/02 13:43:17;;;;;;;6.70;2.30;;;13.90;99.90;;;;;;5063965;28;20043;-66
2022/10/02 13:46:18;;;;;;;18.33;3.20;;;13.90;99.90;;;;;;5059432;28;20067;-65
2022/10/02 13:48:54;;;;;;;9.75;2.65;;;14.00;99.90;;;;;;5052121;28;20064;-65
2022/10/02 13:51:49;;;;;;;13.32;3.00;;;13.80;99.90;;;;;;5064021;28;20045;-68
2022/10/02 13:54:47;;;;;;;11.68;2.88;;;13.80;99.90;;;;;;5064063;28;20051;-65
2022/10/02 13:57:39;;;;;;;6.55;2.08;;;13.70;99.90;;;;;;5063563;28;20123;-66
2022/10/02 14:00:36;;;;;;;10.32;2.67;;;13.60;99.90;;;;;;5058544;28;20539;-66
2022/10/02 14:03:15;;;;;;;4.75;1.83;;;13.60;99.90;;;;;;5064776;28;20048;-66
2022/10/02 14:06:09;;;;;;;9.13;2.58;;;13.60;99.90;;;;;;5063036;28;20040;-66